sensor_id;sensor_type;location;lat;lon;timestamp;temperature;humidity
6377;DHT22;3221;48.858;10.128;2023-02-08T00:00:43;-3.00;99.90
6377;DHT22;3221;48.858;10.128;2023-02-08T00:03:10;-2.90;99.90
6377;DHT22;3221;48.858;10.128;2023-02-08T00:05:38;-3.10;99.90
6377;DHT22;3221;48.858;10.128;2023-02-08T00:08:05;-3.10;99.90
6377;DHT22;3221;48.858;10.128;2023-02-08T00:10:32;-3.00;99.90
6377;DHT22;3221;48.858;10.128;2023-02-08T00:12:59;-3.10;99.90
6377;DHT22;3221;48.858;10.128;2023-02-08T00:15:25;-3.10;99.90
6377;DHT22;3221;48.858;10.128;2023-02-08T00:17:52;-3.20;99.90
6377;DHT22;3221;48.858;10.128;2023-02-08T00:20:19;-3.20;99.90
6377;DHT22;3221;48.858;10.128;2023-02-08T00:22:46;-3.20;99.90
6377;DHT22;3221;48.858;10.128;2023-02-08T00:25:13;-3.20;99.90
6377;DHT22;3221;48.858;10.128;2023-02-08T00:27:40;-3.20;99.90
6377;DHT22;3221;48.858;10.128;2023-02-08T00:30:08;-3.30;99.90
6377;DHT22;3221;48.858;10.128;2023-02-08T00:32:34;-3.10;99.90
6377;DHT22;3221;48.858;10.128;2023-02-08T00:35:01;-3.20;99.90
6377;DHT22;3221;48.858;10.128;2023-02-08T00:37:30;-3.10;99.90
6377;DHT22;3221;48.858;10.128;2023-02-08T00:39:57;-3.10;99.90
6377;DHT22;3221;48.858;10.128;2023-02-08T00:42:26;-3.10;99.90
6377;DHT22;3221;48.858;10.128;2023-02-08T00:44:53;-3.00;99.90
6377;DHT22;3221;48.858;10.128;2023-02-08T00:47:20;-3.00;99.90
6377;DHT22;3221;48.858;10.128;2023-02-08T00:49:47;-3.10;99.90
6377;DHT22;3221;48.858;10.128;2023-02-08T00:52:14;-3.10;99.90
6377;DHT22;3221;48.858;10.128;2023-02-08T00:54:42;-3.00;99.90
6377;DHT22;3221;48.858;10.128;2023-02-08T00:57:09;-3.20;99.90
6377;DHT22;3221;48.858;10.128;2023-02-08T00:59:36;-3.20;99.90
6377;DHT22;3221;48.858;10.128;2023-02-08T01:02:03;-3.20;99.90
6377;DHT22;3221;48.858;10.128;2023-02-08T01:04:31;-3.20;99.90
6377;DHT22;3221;48.858;10.128;2023-02-08T01:06:58;-3.10;99.90
6377;DHT22;3221;48.858;10.128;2023-02-08T01:09:25;-3.30;99.90
6377;DHT22;3221;48.858;10.128;2023-02-08T01:11:52;-3.30;99.90
6377;DHT22;3221;48.858;10.128;2023-02-08T01:14:18;-3.30;99.90
6377;DHT22;3221;48.858;10.128;2023-02-08T01:16:45;-3.30;99.90
6377;DHT22;3221;48.858;10.128;2023-02-08T01:19:12;-3.40;99.90
6377;DHT22;3221;48.858;10.128;2023-02-08T01:21:40;-3.40;99.90
6377;DHT22;3221;48.858;10.128;2023-02-08T01:24:08;-3.40;99.90
6377;DHT22;3221;48.858;10.128;2023-02-08T01:26:36;-3.50;99.90
6377;DHT22;3221;48.858;10.128;2023-02-08T01:29:05;-3.30;99.90
6377;DHT22;3221;48.858;10.128;2023-02-08T01:31:35;-3.40;99.90
6377;DHT22;3221;48.858;10.128;2023-02-08T01:34:03;-3.50;99.90
6377;DHT22;3221;48.858;10.128;2023-02-08T01:36:31;-3.40;99.90
6377;DHT22;3221;48.858;10.128;2023-02-08T01:38:59;-3.50;99.90
6377;DHT22;3221;48.858;10.128;2023-02-08T01:41:36;-3.60;99.90
6377;DHT22;3221;48.858;10.128;2023-02-08T01:44:04;-3.60;99.90
6377;DHT22;3221;48.858;10.128;2023-02-08T01:46:34;-3.70;99.90
6377;DHT22;3221;48.858;10.128;2023-02-08T01:49:15;-3.70;99.90
6377;DHT22;3221;48.858;10.128;2023-02-08T01:52:04;-3.70;99.90
6377;DHT22;3221;48.858;10.128;2023-02-08T01:54:36;-3.60;99.90
6377;DHT22;3221;48.858;10.128;2023-02-08T01:57:04;-3.60;99.90
6377;DHT22;3221;48.858;10.128;2023-02-08T01:59:38;-3.60;99.90
6377;DHT22;3221;48.858;10.128;2023-02-08T02:02:10;-3.60;99.90
6377;DHT22;3221;48.858;10.128;2023-02-08T02:04:38;-3.60;99.90
6377;DHT22;3221;48.858;10.128;2023-02-08T02:07:05;-3.70;99.90
6377;DHT22;3221;48.858;10.128;2023-02-08T02:12:05;-3.70;99.90
6377;DHT22;3221;48.858;10.128;2023-02-08T02:14:34;-3.70;99.90
6377;DHT22;3221;48.858;10.128;2023-02-08T02:17:02;-3.70;99.90
6377;DHT22;3221;48.858;10.128;2023-02-08T02:19:56;-3.80;99.90
6377;DHT22;3221;48.858;10.128;2023-02-08T02:33:54;-3.80;99.90
6377;DHT22;3221;48.858;10.128;2023-02-08T02:42:11;-3.90;99.90
6377;DHT22;3221;48.858;10.128;2023-02-08T02:45:05;-4.00;99.90
6377;DHT22;3221;48.858;10.128;2023-02-08T02:51:10;-4.00;99.90
6377;DHT22;3221;48.858;10.128;2023-02-08T02:53:23;-4.10;99.90
6377;DHT22;3221;48.858;10.128;2023-02-08T02:56:02;-4.00;99.90
6377;DHT22;3221;48.858;10.128;2023-02-08T02:58:31;-4.10;99.90
6377;DHT22;3221;48.858;10.128;2023-02-08T03:00:59;-4.10;99.90
6377;DHT22;3221;48.858;10.128;2023-02-08T03:03:27;-4.10;99.90
6377;DHT22;3221;48.858;10.128;2023-02-08T03:11:42;-4.10;99.90
6377;DHT22;3221;48.858;10.128;2023-02-08T03:14:25;-4.10;99.90
6377;DHT22;3221;48.858;10.128;2023-02-08T03:17:33;-4.10;99.90
6377;DHT22;3221;48.858;10.128;2023-02-08T03:20:20;-4.10;99.90
6377;DHT22;3221;48.858;10.128;2023-02-08T03:23:06;-4.10;99.90
6377;DHT22;3221;48.858;10.128;2023-02-08T03:26:00;-4.10;99.90
6377;DHT22;3221;48.858;10.128;2023-02-08T03:28:43;-4.10;99.90
6377;DHT22;3221;48.858;10.128;2023-02-08T03:31:18;-4.10;99.90
6377;DHT22;3221;48.858;10.128;2023-02-08T03:33:51;-4.20;99.90
6377;DHT22;3221;48.858;10.128;2023-02-08T03:36:26;-4.20;99.90
6377;DHT22;3221;48.858;10.128;2023-02-08T03:38:58;-4.20;99.90
6377;DHT22;3221;48.858;10.128;2023-02-08T03:41:33;-4.20;99.90
6377;DHT22;3221;48.858;10.128;2023-02-08T03:44:09;-4.20;99.90
6377;DHT22;3221;48.858;10.128;2023-02-08T03:46:43;-4.20;99.90
6377;DHT22;3221;48.858;10.128;2023-02-08T03:49:19;-4.20;99.90
6377;DHT22;3221;48.858;10.128;2023-02-08T03:51:48;-4.20;99.90
6377;DHT22;3221;48.858;10.128;2023-02-08T03:54:21;-4.20;99.90
6377;DHT22;3221;48.858;10.128;2023-02-08T03:56:52;-4.30;99.90
6377;DHT22;3221;48.858;10.128;2023-02-08T03:59:25;-4.40;99.90
6377;DHT22;3221;48.858;10.128;2023-02-08T04:02:02;-4.30;99.90
6377;DHT22;3221;48.858;10.128;2023-02-08T04:04:34;-4.40;99.90
6377;DHT22;3221;48.858;10.128;2023-02-08T04:07:03;-4.60;99.90
6377;DHT22;3221;48.858;10.128;2023-02-08T04:09:30;-4.60;99.90
6377;DHT22;3221;48.858;10.128;2023-02-08T04:11:56;-4.60;99.90
6377;DHT22;3221;48.858;10.128;2023-02-08T04:14:24;-4.50;99.90
6377;DHT22;3221;48.858;10.128;2023-02-08T04:16:51;-4.60;99.90
6377;DHT22;3221;48.858;10.128;2023-02-08T04:19:18;-4.70;99.90
6377;DHT22;3221;48.858;10.128;2023-02-08T04:21:45;-4.70;99.90
6377;DHT22;3221;48.858;10.128;2023-02-08T04:24:12;-4.70;99.90
6377;DHT22;3221;48.858;10.128;2023-02-08T04:26:39;-4.70;99.90
6377;DHT22;3221;48.858;10.128;2023-02-08T04:29:06;-4.70;99.90
6377;DHT22;3221;48.858;10.128;2023-02-08T04:31:33;-4.70;99.90
6377;DHT22;3221;48.858;10.128;2023-02-08T04:34:00;-4.80;99.90
6377;DHT22;3221;48.858;10.128;2023-02-08T04:36:27;-4.70;99.90
6377;DHT22;3221;48.858;10.128;2023-02-08T04:38:54;-4.70;99.90
6377;DHT22;3221;48.858;10.128;2023-02-08T04:41:21;-4.70;99.90
6377;DHT22;3221;48.858;10.128;2023-02-08T04:43:48;-4.60;99.90
6377;DHT22;3221;48.858;10.128;2023-02-08T04:46:15;-4.70;99.90
6377;DHT22;3221;48.858;10.128;2023-02-08T04:48:42;-4.70;99.90
6377;DHT22;3221;48.858;10.128;2023-02-08T04:51:08;-4.70;99.90
6377;DHT22;3221;48.858;10.128;2023-02-08T04:53:35;-4.70;99.90
6377;DHT22;3221;48.858;10.128;2023-02-08T04:56:02;-4.70;99.90
6377;DHT22;3221;48.858;10.128;2023-02-08T04:58:29;-4.70;99.90
6377;DHT22;3221;48.858;10.128;2023-02-08T05:00:56;-4.70;99.90
6377;DHT22;3221;48.858;10.128;2023-02-08T05:03:23;-4.70;99.90
6377;DHT22;3221;48.858;10.128;2023-02-08T05:06:00;-4.60;99.90
6377;DHT22;3221;48.858;10.128;2023-02-08T05:08:27;-4.60;99.90
6377;DHT22;3221;48.858;10.128;2023-02-08T05:10:54;-4.60;99.90
6377;DHT22;3221;48.858;10.128;2023-02-08T05:13:21;-4.60;99.90
6377;DHT22;3221;48.858;10.128;2023-02-08T05:15:48;-4.50;99.90
6377;DHT22;3221;48.858;10.128;2023-02-08T05:18:15;-4.60;99.90
6377;DHT22;3221;48.858;10.128;2023-02-08T05:20:41;-4.60;99.90
6377;DHT22;3221;48.858;10.128;2023-02-08T05:23:09;-4.60;99.90
6377;DHT22;3221;48.858;10.128;2023-02-08T05:25:37;-4.60;99.90
6377;DHT22;3221;48.858;10.128;2023-02-08T05:28:04;-4.60;99.90
6377;DHT22;3221;48.858;10.128;2023-02-08T05:30:31;-4.60;99.90
6377;DHT22;3221;48.858;10.128;2023-02-08T05:32:58;-4.60;99.90
6377;DHT22;3221;48.858;10.128;2023-02-08T05:35:25;-4.60;99.90
6377;DHT22;3221;48.858;10.128;2023-02-08T05:37:51;-4.70;99.90
6377;DHT22;3221;48.858;10.128;2023-02-08T05:40:18;-4.60;99.90
6377;DHT22;3221;48.858;10.128;2023-02-08T05:42:45;-4.70;99.90
6377;DHT22;3221;48.858;10.128;2023-02-08T05:45:14;-4.70;99.90
6377;DHT22;3221;48.858;10.128;2023-02-08T05:47:40;-4.70;99.90
6377;DHT22;3221;48.858;10.128;2023-02-08T05:50:08;-4.70;99.90
6377;DHT22;3221;48.858;10.128;2023-02-08T05:52:35;-4.60;99.90
6377;DHT22;3221;48.858;10.128;2023-02-08T05:55:02;-4.60;99.90
6377;DHT22;3221;48.858;10.128;2023-02-08T05:57:29;-4.60;99.90
6377;DHT22;3221;48.858;10.128;2023-02-08T05:59:58;-4.60;99.90
6377;DHT22;3221;48.858;10.128;2023-02-08T06:02:25;-4.50;99.90
6377;DHT22;3221;48.858;10.128;2023-02-08T06:04:52;-4.50;99.90
6377;DHT22;3221;48.858;10.128;2023-02-08T06:07:19;-4.50;99.90
6377;DHT22;3221;48.858;10.128;2023-02-08T06:09:46;-4.60;99.90
6377;DHT22;3221;48.858;10.128;2023-02-08T06:12:14;-4.50;99.90
6377;DHT22;3221;48.858;10.128;2023-02-08T06:14:41;-4.60;99.90
6377;DHT22;3221;48.858;10.128;2023-02-08T06:17:08;-4.60;99.90
6377;DHT22;3221;48.858;10.128;2023-02-08T06:19:35;-4.60;99.90
6377;DHT22;3221;48.858;10.128;2023-02-08T06:22:02;-4.60;99.90
6377;DHT22;3221;48.858;10.128;2023-02-08T06:24:29;-4.60;99.90
6377;DHT22;3221;48.858;10.128;2023-02-08T06:26:56;-4.50;99.90
6377;DHT22;3221;48.858;10.128;2023-02-08T06:29:23;-4.60;99.90
6377;DHT22;3221;48.858;10.128;2023-02-08T06:31:49;-4.60;99.90
6377;DHT22;3221;48.858;10.128;2023-02-08T06:34:16;-4.40;99.90
6377;DHT22;3221;48.858;10.128;2023-02-08T06:36:43;-4.70;99.90
6377;DHT22;3221;48.858;10.128;2023-02-08T06:39:11;-4.60;99.90
6377;DHT22;3221;48.858;10.128;2023-02-08T06:41:38;-4.70;99.90
6377;DHT22;3221;48.858;10.128;2023-02-08T06:44:05;-4.60;99.90
6377;DHT22;3221;48.858;10.128;2023-02-08T06:46:32;-4.60;99.90
6377;DHT22;3221;48.858;10.128;2023-02-08T06:48:58;-4.70;99.90
6377;DHT22;3221;48.858;10.128;2023-02-08T06:51:26;-4.70;99.90
6377;DHT22;3221;48.858;10.128;2023-02-08T06:53:53;-4.60;99.90
6377;DHT22;3221;48.858;10.128;2023-02-08T06:56:20;-4.70;99.90
6377;DHT22;3221;48.858;10.128;2023-02-08T06:58:47;-4.70;99.90
6377;DHT22;3221;48.858;10.128;2023-02-08T07:01:14;-4.70;99.90
6377;DHT22;3221;48.858;10.128;2023-02-08T07:03:42;-4.80;99.90
6377;DHT22;3221;48.858;10.128;2023-02-08T07:06:14;-4.80;99.90
6377;DHT22;3221;48.858;10.128;2023-02-08T07:08:41;-4.80;99.90
6377;DHT22;3221;48.858;10.128;2023-02-08T07:11:10;-4.80;99.90
6377;DHT22;3221;48.858;10.128;2023-02-08T07:13:38;-4.80;99.90
6377;DHT22;3221;48.858;10.128;2023-02-08T07:16:07;-4.80;99.90
6377;DHT22;3221;48.858;10.128;2023-02-08T07:18:35;-4.90;99.90
6377;DHT22;3221;48.858;10.128;2023-02-08T07:21:02;-4.90;99.90
6377;DHT22;3221;48.858;10.128;2023-02-08T07:23:29;-5.00;99.90
6377;DHT22;3221;48.858;10.128;2023-02-08T07:25:58;-4.90;99.90
6377;DHT22;3221;48.858;10.128;2023-02-08T07:28:25;-4.90;99.90
6377;DHT22;3221;48.858;10.128;2023-02-08T07:30:53;-4.90;99.90
6377;DHT22;3221;48.858;10.128;2023-02-08T07:33:20;-4.90;99.90
6377;DHT22;3221;48.858;10.128;2023-02-08T07:35:47;-4.90;99.90
6377;DHT22;3221;48.858;10.128;2023-02-08T07:38:14;-4.80;99.90
6377;DHT22;3221;48.858;10.128;2023-02-08T07:40:41;-4.70;99.90
6377;DHT22;3221;48.858;10.128;2023-02-08T07:43:08;-4.60;99.90
6377;DHT22;3221;48.858;10.128;2023-02-08T07:45:47;-4.40;99.90
6377;DHT22;3221;48.858;10.128;2023-02-08T07:48:15;-4.20;99.90
6377;DHT22;3221;48.858;10.128;2023-02-08T07:50:42;-4.00;99.90
6377;DHT22;3221;48.858;10.128;2023-02-08T07:53:09;-3.90;99.90
6377;DHT22;3221;48.858;10.128;2023-02-08T07:55:36;-3.90;99.90
6377;DHT22;3221;48.858;10.128;2023-02-08T07:58:03;-3.70;99.90
6377;DHT22;3221;48.858;10.128;2023-02-08T08:00:30;-3.70;99.90
6377;DHT22;3221;48.858;10.128;2023-02-08T08:02:58;-3.60;99.90
6377;DHT22;3221;48.858;10.128;2023-02-08T08:05:25;-3.50;99.90
6377;DHT22;3221;48.858;10.128;2023-02-08T08:07:56;-3.40;99.90
6377;DHT22;3221;48.858;10.128;2023-02-08T08:10:22;-3.30;99.90
6377;DHT22;3221;48.858;10.128;2023-02-08T08:12:49;-3.30;99.90
6377;DHT22;3221;48.858;10.128;2023-02-08T08:15:16;-3.20;99.90
6377;DHT22;3221;48.858;10.128;2023-02-08T08:17:43;-3.20;99.90
6377;DHT22;3221;48.858;10.128;2023-02-08T08:20:10;-3.10;99.90
6377;DHT22;3221;48.858;10.128;2023-02-08T08:22:37;-3.00;99.90
6377;DHT22;3221;48.858;10.128;2023-02-08T08:25:04;-3.00;99.90
6377;DHT22;3221;48.858;10.128;2023-02-08T08:27:31;-3.00;99.90
6377;DHT22;3221;48.858;10.128;2023-02-08T08:29:58;-2.90;99.90
6377;DHT22;3221;48.858;10.128;2023-02-08T08:32:25;-2.90;99.90
6377;DHT22;3221;48.858;10.128;2023-02-08T08:34:52;-2.80;99.90
6377;DHT22;3221;48.858;10.128;2023-02-08T08:37:19;-2.80;99.90
6377;DHT22;3221;48.858;10.128;2023-02-08T08:39:46;-2.70;99.90
6377;DHT22;3221;48.858;10.128;2023-02-08T08:42:13;-2.60;99.90
6377;DHT22;3221;48.858;10.128;2023-02-08T08:44:40;-2.60;99.90
6377;DHT22;3221;48.858;10.128;2023-02-08T08:47:08;-2.50;99.90
6377;DHT22;3221;48.858;10.128;2023-02-08T08:49:35;-2.40;99.90
6377;DHT22;3221;48.858;10.128;2023-02-08T08:52:02;-2.40;99.90
6377;DHT22;3221;48.858;10.128;2023-02-08T08:54:29;-2.30;99.90
6377;DHT22;3221;48.858;10.128;2023-02-08T08:56:55;-2.20;99.90
6377;DHT22;3221;48.858;10.128;2023-02-08T08:59:22;-2.10;99.90
6377;DHT22;3221;48.858;10.128;2023-02-08T09:01:49;-2.00;99.90
6377;DHT22;3221;48.858;10.128;2023-02-08T09:04:16;-1.90;99.90
6377;DHT22;3221;48.858;10.128;2023-02-08T09:06:43;-1.90;99.90
6377;DHT22;3221;48.858;10.128;2023-02-08T09:09:10;-1.90;99.90
6377;DHT22;3221;48.858;10.128;2023-02-08T09:11:37;-1.80;99.90
6377;DHT22;3221;48.858;10.128;2023-02-08T09:14:04;-1.80;99.90
6377;DHT22;3221;48.858;10.128;2023-02-08T09:16:32;-1.70;99.90
6377;DHT22;3221;48.858;10.128;2023-02-08T09:19:04;-1.70;99.90
6377;DHT22;3221;48.858;10.128;2023-02-08T09:21:32;-1.60;99.90
6377;DHT22;3221;48.858;10.128;2023-02-08T09:24:02;-1.60;99.90
6377;DHT22;3221;48.858;10.128;2023-02-08T09:26:29;-1.60;99.90
6377;DHT22;3221;48.858;10.128;2023-02-08T09:28:56;-1.50;99.90
6377;DHT22;3221;48.858;10.128;2023-02-08T09:31:27;-1.40;99.90
6377;DHT22;3221;48.858;10.128;2023-02-08T09:33:57;-1.30;99.90
6377;DHT22;3221;48.858;10.128;2023-02-08T09:36:28;-1.30;99.90
6377;DHT22;3221;48.858;10.128;2023-02-08T09:38:58;-1.20;99.90
6377;DHT22;3221;48.858;10.128;2023-02-08T09:47:34;-1.00;99.90
6377;DHT22;3221;48.858;10.128;2023-02-08T09:52:59;-0.90;99.90
6377;DHT22;3221;48.858;10.128;2023-02-08T09:55:52;-0.80;99.90
6377;DHT22;3221;48.858;10.128;2023-02-08T10:00:57;-0.70;99.90
6377;DHT22;3221;48.858;10.128;2023-02-08T10:03:39;-0.70;99.90
6377;DHT22;3221;48.858;10.128;2023-02-08T10:06:17;-0.60;99.90
6377;DHT22;3221;48.858;10.128;2023-02-08T10:08:47;-0.50;99.90
6377;DHT22;3221;48.858;10.128;2023-02-08T10:19:26;-0.30;99.90
6377;DHT22;3221;48.858;10.128;2023-02-08T10:22:03;-0.20;99.90
6377;DHT22;3221;48.858;10.128;2023-02-08T10:27:18;-0.20;99.90
6377;DHT22;3221;48.858;10.128;2023-02-08T10:30:03;0.00;99.90
6377;DHT22;3221;48.858;10.128;2023-02-08T10:35:34;0.20;99.90
6377;DHT22;3221;48.858;10.128;2023-02-08T10:40:59;0.50;99.90
6377;DHT22;3221;48.858;10.128;2023-02-08T10:46:10;0.40;99.90
6377;DHT22;3221;48.858;10.128;2023-02-08T10:51:29;0.50;99.90
6377;DHT22;3221;48.858;10.128;2023-02-08T10:53:56;0.40;99.90
6377;DHT22;3221;48.858;10.128;2023-02-08T10:58:57;0.50;99.90
6377;DHT22;3221;48.858;10.128;2023-02-08T11:01:25;0.50;99.90
6377;DHT22;3221;48.858;10.128;2023-02-08T11:04:08;0.40;99.90
6377;DHT22;3221;48.858;10.128;2023-02-08T11:06:36;0.50;99.90
6377;DHT22;3221;48.858;10.128;2023-02-08T11:09:04;0.70;99.90
6377;DHT22;3221;48.858;10.128;2023-02-08T11:11:37;0.80;99.90
6377;DHT22;3221;48.858;10.128;2023-02-08T11:14:15;0.80;99.90
6377;DHT22;3221;48.858;10.128;2023-02-08T11:16:50;0.80;99.90
6377;DHT22;3221;48.858;10.128;2023-02-08T11:19:47;0.70;99.90
6377;DHT22;3221;48.858;10.128;2023-02-08T11:22:17;0.80;99.90
6377;DHT22;3221;48.858;10.128;2023-02-08T11:24:57;0.80;99.90
6377;DHT22;3221;48.858;10.128;2023-02-08T11:32:41;0.90;99.90
6377;DHT22;3221;48.858;10.128;2023-02-08T11:35:28;0.90;99.90
6377;DHT22;3221;48.858;10.128;2023-02-08T11:37:59;1.10;99.90
6377;DHT22;3221;48.858;10.128;2023-02-08T11:40:27;1.00;99.90
6377;DHT22;3221;48.858;10.128;2023-02-08T11:42:55;1.00;99.90
6377;DHT22;3221;48.858;10.128;2023-02-08T11:45:29;1.00;99.90
6377;DHT22;3221;48.858;10.128;2023-02-08T11:47:57;1.00;99.90
6377;DHT22;3221;48.858;10.128;2023-02-08T11:50:31;0.90;99.90
6377;DHT22;3221;48.858;10.128;2023-02-08T11:53:01;0.90;99.90
6377;DHT22;3221;48.858;10.128;2023-02-08T11:55:31;1.20;99.90
6377;DHT22;3221;48.858;10.128;2023-02-08T12:00:39;1.30;99.90
6377;DHT22;3221;48.858;10.128;2023-02-08T12:03:18;1.30;99.90
6377;DHT22;3221;48.858;10.128;2023-02-08T12:05:55;1.30;99.90
6377;DHT22;3221;48.858;10.128;2023-02-08T12:08:42;1.20;99.90
6377;DHT22;3221;48.858;10.128;2023-02-08T12:22:25;1.10;99.90
6377;DHT22;3221;48.858;10.128;2023-02-08T12:27:53;1.00;99.90
6377;DHT22;3221;48.858;10.128;2023-02-08T12:33:35;1.40;99.90
6377;DHT22;3221;48.858;10.128;2023-02-08T12:36:30;1.60;99.90
6377;DHT22;3221;48.858;10.128;2023-02-08T12:39:19;1.70;99.90
6377;DHT22;3221;48.858;10.128;2023-02-08T12:45:16;1.70;99.90
6377;DHT22;3221;48.858;10.128;2023-02-08T12:48:05;1.60;99.90
6377;DHT22;3221;48.858;10.128;2023-02-08T12:50:50;1.60;99.90
6377;DHT22;3221;48.858;10.128;2023-02-08T12:53:40;1.50;99.90
6377;DHT22;3221;48.858;10.128;2023-02-08T12:56:14;1.70;99.70
6377;DHT22;3221;48.858;10.128;2023-02-08T12:58:45;1.80;99.10
6377;DHT22;3221;48.858;10.128;2023-02-08T13:01:34;1.80;98.60
6377;DHT22;3221;48.858;10.128;2023-02-08T13:04:06;1.70;99.30
6377;DHT22;3221;48.858;10.128;2023-02-08T13:06:44;1.80;98.80
6377;DHT22;3221;48.858;10.128;2023-02-08T13:09:17;1.80;98.30
6377;DHT22;3221;48.858;10.128;2023-02-08T13:11:58;1.80;98.30
6377;DHT22;3221;48.858;10.128;2023-02-08T13:15:10;1.80;98.40
6377;DHT22;3221;48.858;10.128;2023-02-08T13:17:57;1.80;98.20
6377;DHT22;3221;48.858;10.128;2023-02-08T13:23:23;1.80;97.20
6377;DHT22;3221;48.858;10.128;2023-02-08T13:25:57;1.70;97.40
6377;DHT22;3221;48.858;10.128;2023-02-08T13:28:27;1.70;97.40
6377;DHT22;3221;48.858;10.128;2023-02-08T13:31:02;1.50;97.60
6377;DHT22;3221;48.858;10.128;2023-02-08T13:36:31;1.50;98.30
6377;DHT22;3221;48.858;10.128;2023-02-08T13:39:04;1.50;97.60
6377;DHT22;3221;48.858;10.128;2023-02-08T13:41:32;1.60;96.80
6377;DHT22;3221;48.858;10.128;2023-02-08T13:46:35;1.40;96.50
6377;DHT22;3221;48.858;10.128;2023-02-08T13:49:02;1.30;97.00
6377;DHT22;3221;48.858;10.128;2023-02-08T13:56:50;1.10;97.10
6377;DHT22;3221;48.858;10.128;2023-02-08T13:59:37;1.10;96.90
6377;DHT22;3221;48.858;10.128;2023-02-08T14:04:47;1.10;97.60
6377;DHT22;3221;48.858;10.128;2023-02-08T14:10:02;1.10;97.90
6377;DHT22;3221;48.858;10.128;2023-02-08T14:12:41;1.10;99.30
6377;DHT22;3221;48.858;10.128;2023-02-08T14:17:48;1.10;98.50
6377;DHT22;3221;48.858;10.128;2023-02-08T14:20:42;1.10;97.60
6377;DHT22;3221;48.858;10.128;2023-02-08T14:23:23;1.00;98.30
6377;DHT22;3221;48.858;10.128;2023-02-08T14:25:53;1.00;98.40
6377;DHT22;3221;48.858;10.128;2023-02-08T14:31:00;1.00;98.50
6377;DHT22;3221;48.858;10.128;2023-02-08T14:33:35;0.90;98.00
6377;DHT22;3221;48.858;10.128;2023-02-08T14:36:07;0.80;98.00
6377;DHT22;3221;48.858;10.128;2023-02-08T14:38:50;0.80;98.10
6377;DHT22;3221;48.858;10.128;2023-02-08T14:41:57;0.70;97.80
6377;DHT22;3221;48.858;10.128;2023-02-08T14:50:18;0.50;98.40
6377;DHT22;3221;48.858;10.128;2023-02-08T14:55:29;0.50;98.40
6377;DHT22;3221;48.858;10.128;2023-02-08T14:57:58;0.40;98.60
6377;DHT22;3221;48.858;10.128;2023-02-08T15:00:31;0.30;98.90
6377;DHT22;3221;48.858;10.128;2023-02-08T15:02:59;0.30;99.10
6377;DHT22;3221;48.858;10.128;2023-02-08T15:05:36;0.20;98.50
6377;DHT22;3221;48.858;10.128;2023-02-08T15:08:04;0.20;99.10
6377;DHT22;3221;48.858;10.128;2023-02-08T15:10:32;0.10;98.60
6377;DHT22;3221;48.858;10.128;2023-02-08T15:13:01;0.00;99.20
6377;DHT22;3221;48.858;10.128;2023-02-08T15:15:35;0.00;99.50
6377;DHT22;3221;48.858;10.128;2023-02-08T15:18:06;0.00;99.60
6377;DHT22;3221;48.858;10.128;2023-02-08T15:20:44;0.00;99.10
6377;DHT22;3221;48.858;10.128;2023-02-08T15:23:22;-0.10;99.60
6377;DHT22;3221;48.858;10.128;2023-02-08T15:28:30;-0.10;99.50
6377;DHT22;3221;48.858;10.128;2023-02-08T15:31:08;-0.20;99.50
6377;DHT22;3221;48.858;10.128;2023-02-08T15:33:40;-0.20;99.30
6377;DHT22;3221;48.858;10.128;2023-02-08T15:36:21;-0.30;99.00
6377;DHT22;3221;48.858;10.128;2023-02-08T15:38:51;-0.30;99.70
6377;DHT22;3221;48.858;10.128;2023-02-08T15:41:27;-0.40;99.10
6377;DHT22;3221;48.858;10.128;2023-02-08T15:46:38;-0.50;99.10
6377;DHT22;3221;48.858;10.128;2023-02-08T15:49:06;-0.50;99.80
6377;DHT22;3221;48.858;10.128;2023-02-08T15:51:33;-0.60;99.40
6377;DHT22;3221;48.858;10.128;2023-02-08T15:54:00;-0.60;99.20
6377;DHT22;3221;48.858;10.128;2023-02-08T15:56:31;-0.70;98.80
6377;DHT22;3221;48.858;10.128;2023-02-08T15:59:06;-0.80;99.20
6377;DHT22;3221;48.858;10.128;2023-02-08T16:01:40;-0.80;99.50
6377;DHT22;3221;48.858;10.128;2023-02-08T16:04:11;-0.90;99.20
6377;DHT22;3221;48.858;10.128;2023-02-08T16:06:45;-0.90;99.00
6377;DHT22;3221;48.858;10.128;2023-02-08T16:09:18;-1.00;99.20
6377;DHT22;3221;48.858;10.128;2023-02-08T16:11:59;-1.00;99.30
6377;DHT22;3221;48.858;10.128;2023-02-08T16:14:26;-1.00;99.20
6377;DHT22;3221;48.858;10.128;2023-02-08T16:16:57;-1.10;99.30
6377;DHT22;3221;48.858;10.128;2023-02-08T16:19:31;-1.20;99.10
6377;DHT22;3221;48.858;10.128;2023-02-08T16:24:38;-1.20;99.10
6377;DHT22;3221;48.858;10.128;2023-02-08T16:27:14;-1.30;98.90
6377;DHT22;3221;48.858;10.128;2023-02-08T16:29:45;-1.30;98.80
6377;DHT22;3221;48.858;10.128;2023-02-08T16:32:33;-1.40;98.80
6377;DHT22;3221;48.858;10.128;2023-02-08T16:35:12;-1.40;99.00
6377;DHT22;3221;48.858;10.128;2023-02-08T16:37:40;-1.40;98.80
6377;DHT22;3221;48.858;10.128;2023-02-08T16:40:47;-1.50;98.80
6377;DHT22;3221;48.858;10.128;2023-02-08T16:43:31;-1.60;98.70
6377;DHT22;3221;48.858;10.128;2023-02-08T16:48:39;-1.70;99.10
6377;DHT22;3221;48.858;10.128;2023-02-08T16:51:12;-1.70;99.00
6377;DHT22;3221;48.858;10.128;2023-02-08T16:53:42;-1.70;99.10
6377;DHT22;3221;48.858;10.128;2023-02-08T16:56:09;-1.80;99.30
6377;DHT22;3221;48.858;10.128;2023-02-08T16:58:37;-1.80;99.50
6377;DHT22;3221;48.858;10.128;2023-02-08T17:01:04;-1.80;99.30
6377;DHT22;3221;48.858;10.128;2023-02-08T17:03:31;-1.90;99.40
6377;DHT22;3221;48.858;10.128;2023-02-08T17:05:59;-1.90;99.50
6377;DHT22;3221;48.858;10.128;2023-02-08T17:08:27;-2.00;99.80
6377;DHT22;3221;48.858;10.128;2023-02-08T17:10:53;-2.00;99.90
6377;DHT22;3221;48.858;10.128;2023-02-08T17:13:25;-2.10;99.90
6377;DHT22;3221;48.858;10.128;2023-02-08T17:15:57;-2.10;99.90
6377;DHT22;3221;48.858;10.128;2023-02-08T17:18:25;-2.10;99.90
6377;DHT22;3221;48.858;10.128;2023-02-08T17:20:52;-2.10;99.90
6377;DHT22;3221;48.858;10.128;2023-02-08T17:23:25;-2.10;99.90
6377;DHT22;3221;48.858;10.128;2023-02-08T17:25:52;-2.20;99.90
6377;DHT22;3221;48.858;10.128;2023-02-08T17:28:20;-2.20;99.90
6377;DHT22;3221;48.858;10.128;2023-02-08T17:30:48;-2.10;99.90
6377;DHT22;3221;48.858;10.128;2023-02-08T17:33:15;-2.30;99.90
6377;DHT22;3221;48.858;10.128;2023-02-08T17:35:50;-2.30;99.90
6377;DHT22;3221;48.858;10.128;2023-02-08T17:38:18;-2.30;99.90
6377;DHT22;3221;48.858;10.128;2023-02-08T17:40:46;-2.40;99.90
6377;DHT22;3221;48.858;10.128;2023-02-08T17:43:13;-2.40;99.90
6377;DHT22;3221;48.858;10.128;2023-02-08T17:45:41;-2.40;99.90
6377;DHT22;3221;48.858;10.128;2023-02-08T17:48:10;-2.50;99.90
6377;DHT22;3221;48.858;10.128;2023-02-08T17:50:42;-2.50;99.90
6377;DHT22;3221;48.858;10.128;2023-02-08T17:53:13;-2.50;99.90
6377;DHT22;3221;48.858;10.128;2023-02-08T17:55:41;-2.50;99.90
6377;DHT22;3221;48.858;10.128;2023-02-08T17:58:08;-2.50;99.90
6377;DHT22;3221;48.858;10.128;2023-02-08T18:00:35;-2.50;99.90
6377;DHT22;3221;48.858;10.128;2023-02-08T18:03:02;-2.50;99.90
6377;DHT22;3221;48.858;10.128;2023-02-08T18:05:29;-2.50;99.90
6377;DHT22;3221;48.858;10.128;2023-02-08T18:07:56;-2.60;99.90
6377;DHT22;3221;48.858;10.128;2023-02-08T18:10:24;-2.50;99.90
6377;DHT22;3221;48.858;10.128;2023-02-08T18:12:51;-2.50;99.90
6377;DHT22;3221;48.858;10.128;2023-02-08T18:15:20;-2.50;99.90
6377;DHT22;3221;48.858;10.128;2023-02-08T18:17:48;-2.50;99.90
6377;DHT22;3221;48.858;10.128;2023-02-08T18:20:16;-2.50;99.90
6377;DHT22;3221;48.858;10.128;2023-02-08T18:22:44;-2.50;99.90
6377;DHT22;3221;48.858;10.128;2023-02-08T18:25:12;-2.50;99.90
6377;DHT22;3221;48.858;10.128;2023-02-08T18:27:40;-2.50;99.90
6377;DHT22;3221;48.858;10.128;2023-02-08T18:30:08;-2.50;99.90